Terminal Aerodrome Forecast
Issued by NWS

Home | Current Version | Previous Version | Text Only | Print | Product List | Glossary Off
Versions: 1 2 3 4 5 6 7 8 9 10 11 12 13 14

281
FTUS43 KMPX 110520
TAFRWF
TAF
KRWF 110520Z 1106/1206 21006KT P6SM OVC100
     FM111100 28008KT P6SM BKN150
     FM111400 31013G21KT P6SM VCSH OVC015
     FM111700 33024G35KT P6SM OVC015
     FM120000 33017G25KT P6SM SCT020=

USA.gov is the U.S. government's official web portal to all federal, state and local government web resources and services.